Aviation Digital Data Service (ADDS)

Output produced by METARs form (1658 UTC 23 January 2019)
found at http://www.aviationweather.gov/metar/data/
 
Forecast for: DNAK (AKURE AIRPORT , NG)
Text: TAF DNAK 230955Z 2312/2418 24010KT 9999 BKN014
Forecast period: 1200 to 1600 UTC 23 January 2019
Forecast type: FROM: standard forecast or significant change
Winds: from the WSW (240 degrees) at 12 MPH (10 knots; 5.1 m/s)
Visibility: 6 or more miles 10+ km)
Ceiling: 1400 feet AGL
Clouds: broken clouds at 1400 feet AGL
Weather: no significant weather forecast for this period
Text: TEMPO 2312/2316 BKN014 FEW020CB
Forecast period: 1200 to 1600 UTC 23 January 2019
Forecast type: TEMPORARY: The following changes expected for less than half the time period
Visibility: missing
Ceiling: 1400 feet AGL
Clouds: broken clouds at 1400 feet AGL
few clouds at 2000 feet AGL
Weather: no significant weather forecast for this period
Text: BECMG 2316/2318 VRB02KT FEW011
Forecast period: 1600 UTC 23 January 2019 to 1800 UTC 24 January 2019
Forecast type: BECOMING: Conditions expected to become as follows by 1800 UTC 23 January 2019
Winds: variable direction winds at 2 MPH (2 knots; 1.0 m/s)
Visibility: 6 or more miles 10+ km)
Ceiling: at least 12,000 feet AGL
Clouds: few clouds at 1100 feet AGL
Weather: no significant weather forecast for this period